createdAt,value
2023-02-03T00:02:09.440Z,29.30
2023-02-03T00:04:36.419Z,30.13
2023-02-03T00:07:03.436Z,26.13
2023-02-03T00:09:30.745Z,23.13
2023-02-03T00:11:57.750Z,26.50
2023-02-03T00:14:24.804Z,25.08
2023-02-03T00:16:51.860Z,25.25
2023-02-03T00:19:18.809Z,29.52
2023-02-03T00:21:45.761Z,25.52
2023-02-03T00:24:12.818Z,26.53
2023-02-03T00:26:43.853Z,24.40
2023-02-03T00:29:11.252Z,27.17
2023-02-03T00:31:38.547Z,23.63
2023-02-03T00:34:06.535Z,23.97
2023-02-03T00:36:33.712Z,22.48
2023-02-03T00:39:01.506Z,21.00
2023-02-03T00:41:31.787Z,21.98
2023-02-03T00:43:58.973Z,23.08
2023-02-03T00:46:26.149Z,24.15
2023-02-03T00:48:53.256Z,21.10
2023-02-03T00:51:21.518Z,23.83
2023-02-03T00:53:49.389Z,20.88
2023-02-03T00:56:16.403Z,24.67
2023-02-03T00:58:44.955Z,22.10
2023-02-03T01:01:12.039Z,23.13
2023-02-03T01:03:39.622Z,21.50
2023-02-03T01:06:19.356Z,22.98
2023-02-03T01:08:47.605Z,25.73
2023-02-03T01:11:21.136Z,23.15
2023-02-03T01:13:49.139Z,23.42
2023-02-03T01:16:20.227Z,24.35
2023-02-03T01:18:47.770Z,23.58
2023-02-03T01:21:17.907Z,22.30
2023-02-03T01:23:45.530Z,23.95
2023-02-03T01:26:15.561Z,23.08
2023-02-03T01:28:43.152Z,24.77
2023-02-03T01:31:15.644Z,23.55
2023-02-03T01:33:46.365Z,26.50
2023-02-03T01:36:14.493Z,22.15
2023-02-03T01:38:42.191Z,23.92
2023-02-03T01:41:13.063Z,23.77
2023-02-03T01:43:43.571Z,22.27
2023-02-03T01:46:13.244Z,28.17
2023-02-03T01:48:40.320Z,23.55
2023-02-03T01:51:07.615Z,21.63
2023-02-03T01:53:34.764Z,20.95
2023-02-03T01:56:05.010Z,22.40
2023-02-03T01:58:36.080Z,22.20
2023-02-03T02:01:03.145Z,21.30
2023-02-03T02:03:38.576Z,20.48
2023-02-03T02:06:08.437Z,20.63
2023-02-03T02:08:38.842Z,22.67
2023-02-03T02:11:07.265Z,22.63
2023-02-03T02:13:35.726Z,21.67
2023-02-03T02:16:08.760Z,26.70
2023-02-03T02:19:10.755Z,23.65
2023-02-03T02:21:56.763Z,22.98
2023-02-03T02:24:32.624Z,22.33
2023-02-03T02:27:09.519Z,21.20
2023-02-03T02:29:55.423Z,20.48
2023-02-03T02:32:37.703Z,24.35
2023-02-03T02:35:12.769Z,22.98
2023-02-03T02:38:13.949Z,23.17
2023-02-03T02:40:40.841Z,25.42
2023-02-03T02:43:27.582Z,26.92
2023-02-03T02:46:09.351Z,24.00
2023-02-03T02:48:43.713Z,26.40
2023-02-03T02:51:14.597Z,23.27
2023-02-03T02:53:49.359Z,28.40
2023-02-03T02:56:18.957Z,24.35
2023-02-03T02:58:49.728Z,24.77
2023-02-03T03:01:17.387Z,23.80
2023-02-03T03:03:45.335Z,24.88
2023-02-03T03:06:19.461Z,23.63
2023-02-03T03:09:01.449Z,28.65
2023-02-03T03:11:32.057Z,27.88
2023-02-03T03:14:02.464Z,24.58
2023-02-03T03:16:36.117Z,26.23
2023-02-03T03:19:10.304Z,20.83
2023-02-03T03:21:47.929Z,24.77
2023-02-03T03:24:22.303Z,25.27
2023-02-03T03:26:55.176Z,26.42
2023-02-03T03:29:26.807Z,23.38
2023-02-03T03:31:53.933Z,24.70
2023-02-03T03:34:21.193Z,23.70
2023-02-03T03:36:56.748Z,24.70
2023-02-03T03:39:36.047Z,26.00
2023-02-03T03:42:41.561Z,23.92
2023-02-03T03:45:33.197Z,26.15
2023-02-03T03:48:06.531Z,24.23
2023-02-03T03:50:38.343Z,21.92
2023-02-03T03:53:08.250Z,25.15
2023-02-03T03:55:38.365Z,24.35
2023-02-03T03:58:10.309Z,28.77
2023-02-03T04:00:40.009Z,28.25
2023-02-03T04:03:13.961Z,27.60
2023-02-03T04:05:43.037Z,28.75
2023-02-03T04:08:10.038Z,26.63
2023-02-03T04:10:40.265Z,28.08
2023-02-03T04:13:09.347Z,26.95
2023-02-03T04:15:37.030Z,23.38
2023-02-03T04:18:04.729Z,26.92
2023-02-03T04:20:32.920Z,24.35
2023-02-03T04:22:59.955Z,27.45
2023-02-03T04:25:27.127Z,30.70
2023-02-03T04:27:55.120Z,26.88
2023-02-03T04:30:22.193Z,27.73
2023-02-03T04:32:49.583Z,24.75
2023-02-03T04:35:16.963Z,26.58
2023-02-03T04:37:44.044Z,26.88
2023-02-03T04:40:11.900Z,26.50
2023-02-03T04:42:40.473Z,28.90
2023-02-03T04:45:10.352Z,28.27
2023-02-03T04:47:37.812Z,25.48
2023-02-03T04:50:05.051Z,23.83
2023-02-03T04:52:32.172Z,26.38
2023-02-03T04:54:59.176Z,25.08
2023-02-03T04:57:26.118Z,24.92
2023-02-03T04:59:53.082Z,25.20
2023-02-03T05:02:20.074Z,27.52
2023-02-03T05:04:46.981Z,27.33
2023-02-03T05:07:13.922Z,23.95
2023-02-03T05:09:40.865Z,27.48
2023-02-03T05:12:07.913Z,30.75
2023-02-03T05:14:34.839Z,30.92
2023-02-03T05:17:01.814Z,26.45
2023-02-03T05:19:28.878Z,25.13
2023-02-03T05:21:55.835Z,31.40
2023-02-03T05:24:22.825Z,29.25
2023-02-03T05:26:49.798Z,25.80
2023-02-03T05:29:16.802Z,24.80
2023-02-03T05:31:43.780Z,25.42
2023-02-03T05:34:10.788Z,30.35
2023-02-03T05:36:37.773Z,28.35
2023-02-03T05:39:04.805Z,28.27
2023-02-03T05:41:50.364Z,27.27
2023-02-03T05:44:17.309Z,28.35
2023-02-03T05:46:44.266Z,27.75
2023-02-03T05:49:11.261Z,30.02
2023-02-03T05:51:39.616Z,28.17
2023-02-03T05:54:07.225Z,28.70
2023-02-03T05:56:34.274Z,28.13
2023-02-03T05:59:01.251Z,30.67
2023-02-03T06:01:28.280Z,27.23
2023-02-03T06:03:55.388Z,30.85
2023-02-03T06:06:22.870Z,28.83
2023-02-03T06:08:52.406Z,30.10
2023-02-03T06:11:19.353Z,33.20
2023-02-03T06:13:47.632Z,29.40
2023-02-03T06:16:14.722Z,27.73
2023-02-03T06:18:41.865Z,27.40
2023-02-03T06:21:08.818Z,27.60
2023-02-03T06:23:35.800Z,26.95
2023-02-03T06:26:02.757Z,27.65
2023-02-03T06:28:30.378Z,30.25
2023-02-03T06:30:57.380Z,29.30
2023-02-03T06:33:24.499Z,31.55
2023-02-03T06:35:51.454Z,30.15
2023-02-03T06:38:18.388Z,29.77
2023-02-03T06:40:48.054Z,29.75
2023-02-03T06:43:15.587Z,28.65
2023-02-03T06:45:46.376Z,30.00
2023-02-03T06:48:14.025Z,26.98
2023-02-03T06:50:41.434Z,27.98
2023-02-03T06:53:08.498Z,30.45
2023-02-03T06:55:35.476Z,25.65
2023-02-03T06:58:02.500Z,29.25
2023-02-03T07:00:29.795Z,33.20
2023-02-03T07:02:58.376Z,33.20
2023-02-03T07:05:28.041Z,30.88
2023-02-03T07:07:55.291Z,26.67
2023-02-03T07:10:22.272Z,30.88
2023-02-03T07:12:50.921Z,28.92
2023-02-03T07:15:18.026Z,28.20
2023-02-03T07:17:47.050Z,26.15
2023-02-03T07:20:14.161Z,29.80
2023-02-03T07:22:43.954Z,29.33
2023-02-03T07:25:10.993Z,29.27
2023-02-03T07:27:38.003Z,25.95
2023-02-03T07:30:05.399Z,28.95
2023-02-03T07:32:33.849Z,27.85
2023-02-03T07:35:01.461Z,29.40
2023-02-03T07:37:28.852Z,30.25
2023-02-03T07:39:55.839Z,29.77
2023-02-03T07:42:23.002Z,27.08
2023-02-03T07:44:51.774Z,32.17
2023-02-03T07:47:18.693Z,25.65
2023-02-03T07:49:45.668Z,27.98
2023-02-03T07:52:12.645Z,25.15
2023-02-03T07:54:39.578Z,28.25
2023-02-03T07:57:06.549Z,27.63
2023-02-03T07:59:33.812Z,23.35
2023-02-03T08:02:00.885Z,23.52
2023-02-03T08:04:28.143Z,27.23
2023-02-03T08:06:55.256Z,25.25
2023-02-03T08:09:22.182Z,26.85
2023-02-03T08:11:49.182Z,26.02
2023-02-03T08:14:16.266Z,24.90
2023-02-03T08:16:43.316Z,25.50
2023-02-03T08:19:11.122Z,23.38
2023-02-03T08:21:38.397Z,26.02
2023-02-03T08:24:05.884Z,24.65
2023-02-03T08:26:32.864Z,24.38
2023-02-03T08:28:59.927Z,27.40
2023-02-03T08:31:27.004Z,27.48
2023-02-03T08:33:54.257Z,29.20
2023-02-03T08:36:21.332Z,29.02
2023-02-03T08:38:48.362Z,24.65
2023-02-03T08:41:18.299Z,25.55
2023-02-03T08:43:45.670Z,24.33
2023-02-03T08:46:13.453Z,24.13
2023-02-03T08:48:41.009Z,24.10
2023-02-03T08:51:13.196Z,24.05
2023-02-03T08:53:40.184Z,24.88
2023-02-03T08:56:08.993Z,22.75
2023-02-03T08:58:36.772Z,21.65
2023-02-03T09:01:11.982Z,22.67
2023-02-03T09:03:39.859Z,24.48
2023-02-03T09:06:08.153Z,22.80
2023-02-03T09:08:35.165Z,23.23
2023-02-03T09:11:02.309Z,24.70
2023-02-03T09:13:29.322Z,22.38
2023-02-03T09:15:59.601Z,21.30
2023-02-03T09:18:26.660Z,22.42
2023-02-03T09:21:03.826Z,20.38
2023-02-03T09:23:31.048Z,20.65
2023-02-03T09:26:09.966Z,21.27
2023-02-03T09:28:37.820Z,25.35
2023-02-03T09:31:11.158Z,19.95
2023-02-03T09:33:39.040Z,17.60
2023-02-03T09:36:07.228Z,20.80
2023-02-03T09:38:35.051Z,18.05
2023-02-03T09:41:12.874Z,21.92
2023-02-03T09:44:00.994Z,21.85
2023-02-03T09:46:33.802Z,20.92
2023-02-03T09:49:33.094Z,25.00
2023-02-03T09:52:09.075Z,20.60
2023-02-03T09:55:13.247Z,21.60
2023-02-03T09:57:51.837Z,22.67
2023-02-03T10:00:27.838Z,19.27
2023-02-03T10:03:22.946Z,22.10
2023-02-03T10:06:01.967Z,20.27
2023-02-03T10:09:07.695Z,20.50
2023-02-03T10:12:05.307Z,20.80
2023-02-03T10:14:44.367Z,19.75
2023-02-03T10:17:30.642Z,17.27
2023-02-03T10:20:27.366Z,17.45
2023-02-03T10:22:59.981Z,18.13
2023-02-03T10:25:59.105Z,18.15
2023-02-03T10:28:39.613Z,18.52
2023-02-03T10:31:17.823Z,18.52
2023-02-03T10:33:45.051Z,20.50
2023-02-03T10:36:22.535Z,16.67
2023-02-03T10:39:07.597Z,18.73
2023-02-03T10:41:35.144Z,16.70
2023-02-03T10:44:06.863Z,16.92
2023-02-03T10:46:37.945Z,14.95
2023-02-03T10:49:05.047Z,17.40
2023-02-03T10:51:43.335Z,15.77
2023-02-03T10:54:34.501Z,19.58
2023-02-03T10:57:12.870Z,16.67
2023-02-03T10:59:45.525Z,16.15
2023-02-03T11:02:31.204Z,15.95
2023-02-03T11:05:16.616Z,15.57
2023-02-03T11:07:44.647Z,18.38
2023-02-03T11:10:29.664Z,16.30
2023-02-03T11:13:13.259Z,19.50
2023-02-03T11:16:06.139Z,18.17
2023-02-03T11:18:36.275Z,18.60
2023-02-03T11:21:15.403Z,16.65
2023-02-03T11:24:02.068Z,17.88
2023-02-03T11:26:52.022Z,18.37
2023-02-03T11:29:30.841Z,16.90
2023-02-03T11:32:01.934Z,17.55
2023-02-03T11:34:35.468Z,17.25
2023-02-03T11:37:41.506Z,17.38
2023-02-03T11:40:08.556Z,17.92
2023-02-03T11:42:38.034Z,16.88
2023-02-03T11:45:18.249Z,18.65
2023-02-03T11:47:54.102Z,17.05
2023-02-03T11:50:30.803Z,17.48
2023-02-03T11:53:14.914Z,18.50
2023-02-03T11:56:00.107Z,17.15
2023-02-03T11:58:45.724Z,14.00
2023-02-03T12:01:43.786Z,14.68
2023-02-03T12:04:47.871Z,16.48
2023-02-03T12:07:36.609Z,17.65
2023-02-03T12:10:13.543Z,18.20
2023-02-03T12:12:43.241Z,16.55
2023-02-03T12:15:22.313Z,15.85
2023-02-03T12:18:31.181Z,16.20
2023-02-03T12:21:19.640Z,17.15
2023-02-03T12:24:13.410Z,15.77
2023-02-03T12:26:52.378Z,14.05
2023-02-03T12:29:32.490Z,15.25
2023-02-03T12:32:23.694Z,17.48
2023-02-03T12:35:02.180Z,16.13
2023-02-03T12:37:56.074Z,13.60
2023-02-03T12:40:49.151Z,14.30
2023-02-03T12:43:30.877Z,13.38
2023-02-03T12:46:21.002Z,14.68
2023-02-03T12:49:04.506Z,13.95
2023-02-03T12:51:41.481Z,16.25
2023-02-03T12:54:29.832Z,15.38
2023-02-03T12:57:03.510Z,14.65
2023-02-03T12:59:32.583Z,12.02
2023-02-03T13:02:13.929Z,12.68
2023-02-03T13:04:57.023Z,11.68
2023-02-03T13:07:47.777Z,12.40
2023-02-03T13:10:33.268Z,16.30
2023-02-03T13:13:01.237Z,11.90
2023-02-03T13:15:37.507Z,13.15
2023-02-03T13:18:33.068Z,12.55
2023-02-03T13:21:00.314Z,12.65
2023-02-03T13:23:27.885Z,13.38
2023-02-03T13:26:11.140Z,13.13
2023-02-03T13:29:04.364Z,12.00
2023-02-03T13:31:37.288Z,12.55
2023-02-03T13:34:16.139Z,12.82
2023-02-03T13:37:14.050Z,12.77
2023-02-03T13:39:47.611Z,12.25
2023-02-03T13:42:29.864Z,12.75
2023-02-03T13:45:31.076Z,11.80
2023-02-03T13:48:22.292Z,11.77
2023-02-03T13:51:14.892Z,13.60
2023-02-03T13:53:45.177Z,12.40
2023-02-03T13:56:20.480Z,14.18
2023-02-03T13:59:07.372Z,13.02
2023-02-03T14:01:38.560Z,12.45
2023-02-03T14:04:09.153Z,11.90
2023-02-03T14:06:36.273Z,13.48
2023-02-03T14:09:24.247Z,13.60
2023-02-03T14:11:52.789Z,12.40
2023-02-03T14:14:20.868Z,14.45
2023-02-03T14:16:54.792Z,13.02
2023-02-03T14:19:21.906Z,13.55
2023-02-03T14:22:02.961Z,12.85
2023-02-03T14:24:39.202Z,12.30
2023-02-03T14:27:21.431Z,11.13
2023-02-03T14:30:07.243Z,14.20
2023-02-03T14:33:01.256Z,12.95
2023-02-03T14:35:30.986Z,17.35
2023-02-03T14:38:02.867Z,15.10
2023-02-03T14:40:50.110Z,15.85
2023-02-03T14:43:26.214Z,12.95
2023-02-03T14:46:36.713Z,13.93
2023-02-03T14:49:12.308Z,13.73
2023-02-03T14:51:58.161Z,14.50
2023-02-03T14:54:49.469Z,13.25
2023-02-03T14:57:45.102Z,14.90
2023-02-03T15:00:22.536Z,15.18
2023-02-03T15:03:10.885Z,16.08
2023-02-03T15:05:45.083Z,14.40
2023-02-03T15:08:36.422Z,15.13
2023-02-03T15:11:44.002Z,13.93
2023-02-03T15:14:22.415Z,13.52
2023-02-03T15:17:20.489Z,15.93
2023-02-03T15:19:47.515Z,13.80
2023-02-03T15:22:29.312Z,15.32
2023-02-03T15:24:59.226Z,12.80
2023-02-03T15:27:31.106Z,15.10
2023-02-03T15:30:02.172Z,14.50
2023-02-03T15:32:39.861Z,15.45
2023-02-03T15:35:12.768Z,17.20
2023-02-03T15:37:54.080Z,14.25
2023-02-03T15:40:26.186Z,15.95
2023-02-03T15:42:59.252Z,19.05
2023-02-03T15:45:31.216Z,15.77
2023-02-03T15:48:06.255Z,19.40
2023-02-03T15:50:41.845Z,15.68
2023-02-03T15:53:27.654Z,14.60
2023-02-03T15:55:59.332Z,15.38
2023-02-03T15:58:33.220Z,16.00
2023-02-03T16:01:05.869Z,15.07
2023-02-03T16:03:40.490Z,14.80
2023-02-03T16:06:38.095Z,14.30
2023-02-03T16:09:29.171Z,13.55
2023-02-03T16:12:22.524Z,14.82
2023-02-03T16:14:53.442Z,16.58
2023-02-03T16:17:26.951Z,17.23
2023-02-03T16:20:12.389Z,15.52
2023-02-03T16:22:42.151Z,16.13
2023-02-03T16:25:18.632Z,15.77
2023-02-03T16:27:46.642Z,16.30
2023-02-03T16:30:32.030Z,16.67
2023-02-03T16:33:35.615Z,16.77
2023-02-03T16:36:29.305Z,15.10
2023-02-03T16:39:14.748Z,15.23
2023-02-03T16:42:00.308Z,16.33
2023-02-03T16:44:55.582Z,16.17
2023-02-03T16:47:46.217Z,15.35
2023-02-03T16:50:43.256Z,17.98
2023-02-03T16:53:15.799Z,17.55
2023-02-03T16:55:46.168Z,17.25
2023-02-03T16:58:13.225Z,15.93
2023-02-03T17:00:42.638Z,16.42
2023-02-03T17:03:17.579Z,15.43
2023-02-03T17:05:47.874Z,15.13
2023-02-03T17:08:17.523Z,15.50
2023-02-03T17:10:45.501Z,16.65
2023-02-03T17:13:12.657Z,16.25
2023-02-03T17:15:44.891Z,14.02
2023-02-03T17:18:13.050Z,15.32
2023-02-03T17:20:41.219Z,14.55
2023-02-03T17:23:08.854Z,13.75
2023-02-03T17:25:38.348Z,14.50
2023-02-03T17:28:11.134Z,14.00
2023-02-03T17:30:38.262Z,13.57
2023-02-03T17:33:13.272Z,14.80
2023-02-03T17:35:45.554Z,14.68
2023-02-03T17:38:14.620Z,13.77
2023-02-03T17:54:48.071Z,11.55
2023-02-03T17:57:15.418Z,12.98
2023-02-03T17:59:42.376Z,14.20
2023-02-03T18:02:10.364Z,13.35
2023-02-03T18:04:37.350Z,12.50
2023-02-03T18:07:04.388Z,10.02
2023-02-03T18:09:39.551Z,7.68
2023-02-03T18:12:07.700Z,6.20
2023-02-03T18:14:37.990Z,5.38
2023-02-03T18:17:05.030Z,4.25
2023-02-03T18:19:33.406Z,5.07
2023-02-03T18:22:01.295Z,4.82
2023-02-03T18:24:30.014Z,4.07
2023-02-03T18:27:00.473Z,5.15
2023-02-03T18:29:28.611Z,4.55
2023-02-03T18:31:58.406Z,4.75
2023-02-03T18:34:26.482Z,5.05
2023-02-03T18:36:53.477Z,5.43
2023-02-03T18:39:20.637Z,5.35
2023-02-03T18:41:47.701Z,5.53
2023-02-03T18:44:14.627Z,4.90
2023-02-03T18:46:41.636Z,5.13
2023-02-03T18:49:09.557Z,5.10
2023-02-03T18:51:36.624Z,5.10
2023-02-03T18:54:04.309Z,5.35
2023-02-03T18:56:35.392Z,6.10
2023-02-03T18:59:10.817Z,5.43
2023-02-03T19:01:39.176Z,5.43
2023-02-03T19:04:06.650Z,5.75
2023-02-03T19:06:34.982Z,5.53
2023-02-03T19:09:03.859Z,5.35
2023-02-03T19:11:30.788Z,5.35
2023-02-03T19:13:57.841Z,5.43
2023-02-03T19:16:24.811Z,5.13
2023-02-03T19:18:51.899Z,6.10
2023-02-03T19:21:18.853Z,5.45
2023-02-03T19:23:45.813Z,5.75
2023-02-03T19:26:13.030Z,6.82
2023-02-03T19:28:40.972Z,6.60
2023-02-03T19:31:11.045Z,6.47
2023-02-03T19:33:38.124Z,5.57
2023-02-03T19:36:06.082Z,6.70
2023-02-03T19:38:33.397Z,6.35
2023-02-03T19:41:03.858Z,6.65
2023-02-03T19:43:31.310Z,6.43
2023-02-03T19:45:59.043Z,5.80
2023-02-03T19:48:26.226Z,6.20
2023-02-03T19:50:53.219Z,6.50
2023-02-03T19:53:21.689Z,5.57
2023-02-03T19:55:48.754Z,6.60
2023-02-03T19:58:15.819Z,6.40
2023-02-03T20:00:43.565Z,7.18
2023-02-03T20:03:11.227Z,7.85
2023-02-03T20:05:38.663Z,6.90
2023-02-03T20:08:06.095Z,7.43
2023-02-03T20:10:33.701Z,8.00
2023-02-03T20:13:01.202Z,7.28
2023-02-03T20:15:28.476Z,7.50
2023-02-03T20:17:56.001Z,8.65
2023-02-03T20:20:23.253Z,8.15
2023-02-03T20:22:50.556Z,7.50
2023-02-03T20:25:18.464Z,7.38
2023-02-03T20:27:45.946Z,7.72
2023-02-03T20:30:13.730Z,7.32
2023-02-03T20:32:40.775Z,8.50
2023-02-03T20:35:08.824Z,7.20
2023-02-03T20:37:36.443Z,11.90
2023-02-03T20:40:12.832Z,8.60
2023-02-03T20:42:40.192Z,7.40
2023-02-03T20:45:13.354Z,7.47
2023-02-03T20:47:40.554Z,7.95
2023-02-03T20:50:18.438Z,8.02
2023-02-03T20:52:50.018Z,7.00
2023-02-03T20:55:22.809Z,7.10
2023-02-03T20:57:51.746Z,6.80
2023-02-03T21:00:25.841Z,6.43
2023-02-03T21:03:12.166Z,6.57
2023-02-03T21:05:43.293Z,6.22
2023-02-03T21:08:20.452Z,6.25
2023-02-03T21:13:18.363Z,5.93
2023-02-03T21:15:51.835Z,5.78
2023-02-03T21:18:40.569Z,5.15
2023-02-03T21:21:25.148Z,6.57
2023-02-03T21:23:54.963Z,5.85
2023-02-03T21:26:23.770Z,6.68
2023-02-03T21:28:53.602Z,6.28
2023-02-03T21:31:25.136Z,5.85
2023-02-03T21:33:54.273Z,6.43
2023-02-03T21:36:24.273Z,5.90
2023-02-03T21:38:57.429Z,6.95
2023-02-03T21:42:00.606Z,5.68
2023-02-03T21:44:38.385Z,5.05
2023-02-03T21:47:31.175Z,4.93
2023-02-03T21:50:52.217Z,5.72
2023-02-03T21:54:41.796Z,5.35
2023-02-03T21:57:15.009Z,5.65
2023-02-03T21:59:46.648Z,5.25
2023-02-03T22:02:56.798Z,5.75
2023-02-03T22:05:23.835Z,5.45
2023-02-03T22:07:50.827Z,5.90
2023-02-03T22:10:17.848Z,5.95
2023-02-03T22:12:44.800Z,5.95
2023-02-03T22:15:12.425Z,6.30
2023-02-03T22:17:39.398Z,5.72
2023-02-03T22:20:06.848Z,5.75
2023-02-03T22:22:34.031Z,6.05
2023-02-03T22:25:01.287Z,5.25
2023-02-03T22:27:28.363Z,5.40
2023-02-03T22:29:56.640Z,5.45
2023-02-03T22:32:23.761Z,5.80
2023-02-03T22:34:50.873Z,6.07
2023-02-03T22:37:17.780Z,6.20
2023-02-03T22:39:44.985Z,5.72
2023-02-03T22:42:19.037Z,5.75
2023-02-03T22:44:46.509Z,5.60
2023-02-03T22:47:14.152Z,5.57
2023-02-03T22:49:41.086Z,5.88
2023-02-03T22:52:08.054Z,5.40
2023-02-03T22:54:37.447Z,5.90
2023-02-03T22:57:05.219Z,5.78
2023-02-03T22:59:32.163Z,5.15
2023-02-03T23:01:59.086Z,5.60
2023-02-03T23:04:26.150Z,5.50
2023-02-03T23:06:53.186Z,5.80
2023-02-03T23:09:20.133Z,6.00
2023-02-03T23:11:47.203Z,5.60
2023-02-03T23:14:16.794Z,5.63
2023-02-03T23:16:43.981Z,5.53
2023-02-03T23:19:10.998Z,5.70
2023-02-03T23:21:37.898Z,5.65
2023-02-03T23:24:05.198Z,5.65
2023-02-03T23:26:32.340Z,6.20
2023-02-03T23:28:59.314Z,5.53
2023-02-03T23:31:26.368Z,5.82
2023-02-03T23:34:12.028Z,6.07
2023-02-03T23:36:38.952Z,6.57
2023-02-03T23:39:06.716Z,6.93
2023-02-03T23:41:33.711Z,6.47
2023-02-03T23:44:03.437Z,6.85
2023-02-03T23:46:30.543Z,6.28
2023-02-03T23:48:57.530Z,6.40
2023-02-03T23:51:24.577Z,6.38
2023-02-03T23:53:51.516Z,6.28
2023-02-03T23:56:18.427Z,6.32
2023-02-03T23:58:45.341Z,5.90
